Du har inga inställningar för hoppväder.nu

Hoppväder.nu

Senast uppdaterat 19:29

UTC-tid

2020-09-20 kl. 17:29


Sol och måne

Solen går upp 6:58 och går ner 20:00 (beräknade cirkatider)
Nästa fullmåne blir om 11 dagar (2020-10-01)

METAR

ESMS (Malmö)
(9 minuter sedan)
ESMS 201720Z 32004KT CAVOK 14/11 Q1021=



ESMK (Everöd)
(9 minuter sedan)
ESMK 201720Z AUTO 35007KT 9999 BKN017/// 13/12 Q1021=



ESTL (Ljungbyhed)
(9 minuter sedan)
ESTL 201720Z AUTO 00000KT 9999 OVC009/// 13/13 Q1021=



EKCH (Köpenhamn)
(39 minuter sedan)
EKCH 201650Z AUTO 09002KT 9999 NCD 15/12 Q1021 NOSIG=



ESTA (Ängelholm)
(9 minuter sedan)
ESTA 201720Z 00000KT 9999 BKN011 13/11 Q1021=



TAF

ESMS (Malmö)
(33 minuter sedan)
ESMS 201656Z 2018/2118 VRB02KT CAVOK BECMG 2021/2023 2000 BR BECMG 2100/2102 0100 FG VV001 BECMG 2107/2109 3000 BR BKN010 BECMG 2109/2112 9999 NSW FEW010=



ESMK (Everöd)
ESMK



ESTL (Ljungbyhed)
ESTL



EKCH (Köpenhamn)
(374 minuter sedan)
EKCH 201115Z 2012/2112 VRB02KT 9999 BKN012 BECMG 2012/2013 FEW012 TEMPO 2018/2024 1200 BCFG BECMG 2100/2102 0200 FG VV002 TEMPO 2102/2107 4000 BCFG BR BKN008 BECMG 2107/2109 9999 NSW BKN010 TEMPO 2109/2112 FEW010=



ESTA (Ängelholm)
(32 minuter sedan)
ESTA 201657Z 2018/2022 VRB03KT 9999 BKN012 TEMPO 2018/2021 BKN008=





Kodnycklar till TAF och METAR






LHP

(Eslöv är område se11f i Hela Område 1)

Översikt

ÖVERSIKT FÖR OMRÅDE se1 UTFÄRDAD 201104

GÄLLANDE DEN 20 SEPTEMBER 2020 MELLAN 12 OCH 20 UTC


Väderöversikt
Se väderöversikt för område se2 + se3

Sikt under 5 kilometer eller molnbas under 1000 fot
12-20UTC: I hela området


Måttlig eller svår isbildning
Väntas inte förekomma under perioden

Måttlig eller svår turbulens
Väntas inte förekomma under perioden

Hela Område 1

PROGNOS FÖR OMRÅDE se11 UTFÄRDAD 201104
GÄLLANDE DEN 20 SEPTEMBER 2020 MELLAN 12 OCH 20 UTC

Måttlig eller svår turbulens
12-20UTC: I hela området: Väntas inte förekomma under perioden

Måttlig eller svår isbildning
12-20UTC: I hela området: Väntas inte förekomma under perioden

Sikt/Väder/Moln
12-14UTC: Område se11e,se11d,se11b,se11h: Sikt 5km - >8km. Molnbas 500ft - 2000ft.
Område se11c,se11i,se11g,se11f: Sikt >8km. Molnbas 1500ft - 2000ft, lokalt 1000ft - 1500ft.
Område se11a: Sikt >8km, lokalt 5km - 8km. Molnbas 1500ft - 2000ft, lokalt 500ft - 1000ft.

14-16UTC: Område se11d: Sikt 5km - >8km. Molnbas 500ft - >4000ft.

14-18UTC: Område se11e,se11c,se11i,se11h,se11g,se11f: Sikt >8km. Molnbas >4000ft, lokalt 1000ft - 1500ft.
Område se11a,se11b: Sikt 5km - >8km. Molnbas 500ft - >4000ft.

16-18UTC: Område se11d: Sikt >8km. Molnbas >4000ft, lokalt 1000ft - 1500ft.

18-20UTC: Område se11e,se11d,se11c,se11i,se11h,se11g,se11f: Sikt >8km, lokalt 3km - 5km i dis. Molnbas >4000ft, lokalt 1000ft - 1500ft.
Område se11a,se11b: Sikt 3km - >8km i dis. Molnbas 500ft - >4000ft.


Molnöversida
12-16UTC: I hela området: Molnöversida 2000ft.
16-20UTC: I hela området: Molnöversida 2500ft.

CB/TCU Moln
12-20UTC: I hela området: Väntas inte förekomma under perioden

Nollgradersisoterm
12-16UTC: Noll grader FL110 - > FL125.
16-20UTC: Noll grader FL115 - > FL125.

Vind vid marken
12-14UTC: Område se11f: SV/0-8 knop, byar upp till 16 knop.
Område se11a: SV/1-9 knop, byar upp till 15 knop.
Område se11d: SV-V/1-4 knop.
Område se11g: O-SO/0-5 knop, byar upp till 12 knop.
Område se11c: V-NV/0-7 knop, byar upp till 13 knop.
Område se11e: SV/0-8 knop, byar upp till 14 knop.
Område se11b: SV/0-5 knop.
Område se11h: SO/0-10 knop, byar upp till 15 knop.
Område se11i: SO-S/0-12 knop, byar upp till 16 knop.

14-16UTC: Område se11d: V-NV/1-9 knop, byar upp till 13 knop.
Område se11h: SO-S/0-12 knop, byar upp till 15 knop.
Område se11e: SV/1-8 knop, byar upp till 15 knop.
Område se11i: SO/0-8 knop, byar upp till 17 knop.
Område se11c: SV-V/0-4 knop.
Område se11g: O/0-6 knop.
Område se11a: SV-V/3-8 knop.
Område se11b: V-NV/0-7 knop.
Område se11f: SV/0-6 knop, byar upp till 13 knop.

16-18UTC: Område se11b: NV/2-7 knop.
Område se11i: SO-S/0-8 knop.
Område se11h: S/0-10 knop, byar upp till 12 knop.
Område se11d: NV/1-5 knop.
Område se11c: V/0-7 knop.
Område se11a: V/1-6 knop.
Område se11g: O-SO/0-5 knop.
Område se11e: V/0-4 knop, byar upp till 12 knop.
Område se11f: V/0-6 knop, byar upp till 11 knop.

18-20UTC: Område se11a: SV-V/0-6 knop.
Område se11c: NV-N/0-6 knop.
Område se11d: NV/0-4 knop.
Område se11e: Lugnt.
Område se11f: V-NV/0-4 knop.
Område se11i: SO-S/0-5 knop.
Område se11b: NV/0-5 knop.
Område se11h: SV/0-9 knop, byar upp till 12 knop.
Område se11g: NO-O/0-4 knop.


Genomsnittlig vind och temperatur för området
2000ft:
12-14UTC: 210/6kt +12.
14-16UTC: 240/5kt +12.
16-18UTC: 260/5kt +12.
18-20UTC: 290/5kt +12.

FL50:
12-14UTC: 280/6kt +10.
14-16UTC: 310/6kt +10.
16-18UTC: 310/5kt +10.
18-20UTC: 300/4kt +10.

FL100:
12-16UTC: 310/9kt +3.
16-20UTC: 320/9kt +3.

Lägsta QNH
1020 hPa.

OBS! endast utbredd måttlig eller svår isbildning och turbulens prognostiseras i LLF.
Avsaknad av isbildning och turbulens i prognosen utesluter inte förekomst av lätt isbildning och turbulens.
För indikation på lätt isbildning, var vänlig kontrollera om prognosen för molntopp ligger högre än nollgradersisotermen.
Förekomst av TCU eller CB medför alltid en risk för måttlig eller svår isbildning och turbulens även om det inte framgår explicit av prognosen.





Spotting

Hur fungerar spotthjälpen och Vindkartan?

Markvind är ca 0-3 m/s med byar på 6 m/s.
Vind på 600 m ca 3 m/s.
Vind på 1500 m ca 3 m/s.
Vind på 3000 m ca 5 m/s.
Caravanen flyger ca 37 m/s över marken på finalen.
Du driver ca 208 m bakåt i frifall. (278 m)
Lämplig spot är 2 sekunder eller 73 m innan gropen.
(-0s eller -0 m)
För små grupper eller ensamhoppare bör man vänta 4-6 sekunder mellan grupperna.
För större grupper bör man vänta 8-10 sekunder mellan grupperna.


Vindkartan

Senast uppdaterad 19:29




All data kommer från LFV.se